Time;durP1;ratioP1;P1;durP2;ratioP2;P2;SDS_P1;SDS_P2;PMS_P1;PMS_P2;Temp;Humidity;BMP_temperature;BMP_pressure;BME280_temperature;BME280_humidity;BME280_pressure;Samples;Min_cycle;Max_cycle;Signal;HPM_P1;HPM_P2
2022/03/16 00:00:08;;;;;;;26.00;15.00;;;;;;;5.74;83.45;102022.47;5074540;28;20080;-67
2022/03/16 00:02:39;;;;;;;26.08;15.15;;;;;;;5.63;82.73;102021.44;5070229;28;20072;-67
2022/03/16 00:05:06;;;;;;;22.90;13.98;;;;;;;5.65;83.04;102019.56;5075212;28;20044;-67
2022/03/16 00:07:33;;;;;;;26.52;14.85;;;;;;;5.61;83.06;102026.78;5057536;28;20045;-67
2022/03/16 00:10:00;;;;;;;25.35;14.60;;;;;;;5.58;83.37;102025.19;5075246;28;20405;-67
2022/03/16 00:12:27;;;;;;;28.95;14.88;;;;;;;5.49;82.94;102020.44;5074995;28;20495;-67
2022/03/16 00:14:54;;;;;;;24.48;14.57;;;;;;;5.51;83.30;102020.34;5074095;28;20405;-67
2022/03/16 00:17:20;;;;;;;25.75;14.70;;;;;;;5.51;83.54;102012.47;5074003;28;20041;-67
2022/03/16 00:19:47;;;;;;;23.67;13.95;;;;;;;5.50;84.05;102009.00;5073950;28;20404;-67
2022/03/16 00:22:14;;;;;;;25.20;14.18;;;;;;;5.50;83.89;102011.63;5073837;28;20048;-67
2022/03/16 00:24:41;;;;;;;22.58;13.77;;;;;;;5.42;83.80;102011.25;5073697;28;20528;-67
2022/03/16 00:27:07;;;;;;;26.70;14.38;;;;;;;5.31;83.45;102006.59;5073535;28;20190;-67
2022/03/16 00:29:34;;;;;;;24.17;14.23;;;;;;;5.39;83.89;102016.69;5073635;28;20455;-67
2022/03/16 00:32:03;;;;;;;29.10;14.95;;;;;;;5.36;83.85;102020.31;5073758;28;20044;-67
2022/03/16 00:34:30;;;;;;;24.77;14.10;;;;;;;5.33;83.93;102024.91;5074928;28;20040;-67
2022/03/16 00:36:57;;;;;;;24.05;13.90;;;;;;;5.33;83.57;102025.78;5074457;28;20120;-67
2022/03/16 00:39:25;;;;;;;24.13;14.15;;;;;;;5.35;83.74;102026.53;5073750;28;20048;-67
2022/03/16 00:41:51;;;;;;;27.05;14.65;;;;;;;5.26;83.75;102024.44;5073353;28;20045;-67
2022/03/16 00:44:19;;;;;;;26.33;15.27;;;;;;;5.33;84.05;102028.41;5073925;28;20052;-67
2022/03/16 00:46:45;;;;;;;24.05;14.60;;;;;;;5.27;84.05;102027.91;5073057;28;20405;-67
2022/03/16 00:49:12;;;;;;;26.67;16.83;;;;;;;5.25;83.98;102027.16;5074651;28;20103;-67
2022/03/16 00:51:39;;;;;;;26.23;15.20;;;;;;;5.22;83.57;102024.69;5056885;28;20400;-67
2022/03/16 00:54:08;;;;;;;26.85;15.20;;;;;;;5.23;84.02;102015.88;5073277;28;20102;-67
2022/03/16 00:56:35;;;;;;;28.65;16.00;;;;;;;5.00;84.44;102021.50;5074074;28;20042;-67
2022/03/16 00:59:02;;;;;;;26.92;15.85;;;;;;;4.95;84.28;102017.44;5073319;28;20032;-67
2022/03/16 01:01:28;;;;;;;29.58;16.27;;;;;;;5.04;84.80;102024.81;5055671;28;20047;-67
2022/03/16 01:03:56;;;;;;;26.95;15.75;;;;;;;4.93;84.70;102021.91;5074238;28;20461;-69
2022/03/16 01:06:23;;;;;;;30.70;16.20;;;;;;;4.97;84.67;102018.19;5056271;28;20433;-67
2022/03/16 01:08:50;;;;;;;32.78;16.63;;;;;;;5.00;84.19;102012.75;5072993;28;20048;-67
2022/03/16 01:11:18;;;;;;;28.02;15.70;;;;;;;4.98;84.35;102015.47;5073892;28;20037;-67
2022/03/16 01:13:45;;;;;;;28.10;15.27;;;;;;;4.98;84.38;102019.88;5072962;28;20082;-67
2022/03/16 01:16:12;;;;;;;29.23;17.02;;;;;;;4.96;84.18;102012.06;5073832;28;20090;-67
2022/03/16 01:18:39;;;;;;;26.73;15.45;;;;;;;5.00;84.48;102010.97;5072600;28;20044;-67
2022/03/16 01:21:07;;;;;;;27.35;15.68;;;;;;;4.99;84.98;102009.28;5072920;28;20040;-67
2022/03/16 01:23:36;;;;;;;29.65;15.55;;;;;;;4.94;84.37;102008.69;5072197;28;20055;-67
2022/03/16 01:26:04;;;;;;;26.38;15.35;;;;;;;4.95;84.43;102006.91;5073817;28;20036;-67
2022/03/16 01:28:31;;;;;;;29.60;14.23;;;;;;;5.02;84.01;102010.91;5073373;28;20401;-67
2022/03/16 01:31:01;;;;;;;27.83;15.38;;;;;;;4.99;84.01;102013.69;5072607;28;20044;-67
2022/03/16 01:33:28;;;;;;;27.25;15.00;;;;;;;4.89;84.19;102010.72;5073740;28;20492;-67
2022/03/16 01:35:55;;;;;;;29.77;15.32;;;;;;;4.90;84.12;102004.53;5073407;28;20578;-67
2022/03/16 01:38:22;;;;;;;25.55;14.13;;;;;;;4.92;84.17;102015.81;5055471;28;20093;-67
2022/03/16 01:40:51;;;;;;;26.73;15.02;;;;;;;4.73;84.23;102008.13;5073542;28;20124;-67
2022/03/16 01:43:18;;;;;;;24.58;13.98;;;;;;;4.80;84.10;102006.84;5073318;28;20071;-67
2022/03/16 01:45:47;;;;;;;27.38;15.07;;;;;;;4.81;84.01;102002.41;5072656;28;20048;-68
2022/03/16 01:48:16;;;;;;;26.98;14.77;;;;;;;4.84;84.24;102002.25;5073181;28;20578;-67
2022/03/16 01:50:45;;;;;;;24.58;14.68;;;;;;;4.85;83.96;102003.94;5073557;28;20056;-67
2022/03/16 01:53:12;;;;;;;26.27;14.90;;;;;;;4.82;83.42;102006.75;5073710;28;20098;-67
2022/03/16 01:55:40;;;;;;;27.40;14.05;;;;;;;4.83;83.89;101997.94;5071226;28;20595;-67
2022/03/16 01:58:08;;;;;;;24.20;13.85;;;;;;;4.81;83.91;101997.16;5072878;28;20036;-67
2022/03/16 02:00:35;;;;;;;23.73;13.20;;;;;;;4.78;84.58;102003.47;5089350;28;20056;-67
2022/03/16 02:03:02;;;;;;;25.73;13.65;;;;;;;4.80;84.46;101998.97;5054267;28;20051;-67
2022/03/16 02:05:29;;;;;;;26.08;14.02;;;;;;;4.79;83.87;101992.00;5072952;28;20520;-67
2022/03/16 02:07:57;;;;;;;26.70;14.55;;;;;;;4.92;83.48;101984.25;5055776;28;20044;-67
2022/03/16 02:10:24;;;;;;;28.70;14.80;;;;;;;4.79;84.11;101980.63;5055606;28;20080;-67
2022/03/16 02:12:52;;;;;;;24.95;14.60;;;;;;;4.85;84.53;101985.53;5088974;28;20062;-67
2022/03/16 02:15:21;;;;;;;24.80;13.70;;;;;;;4.84;84.05;101983.00;5055238;28;20044;-67
2022/03/16 02:17:50;;;;;;;25.02;13.48;;;;;;;4.81;84.23;101984.84;5072836;28;20497;-67
2022/03/16 02:20:17;;;;;;;26.05;13.85;;;;;;;4.85;83.81;101985.53;5072949;28;20481;-67
2022/03/16 02:22:50;;;;;;;25.48;13.98;;;;;;;4.87;83.29;101982.81;5072794;28;20090;-67
2022/03/16 02:25:20;;;;;;;26.10;13.38;;;;;;;4.89;83.18;101984.41;5089514;28;20052;-67
2022/03/16 02:27:47;;;;;;;24.80;14.20;;;;;;;4.89;83.38;101976.53;5072967;28;20081;-67
2022/03/16 02:30:13;;;;;;;25.42;13.77;;;;;;;4.88;83.22;101984.53;5071791;28;20037;-67
2022/03/16 02:32:41;;;;;;;25.10;13.18;;;;;;;4.95;83.41;101985.88;5071625;28;20387;-67
2022/03/16 02:35:08;;;;;;;24.55;13.18;;;;;;;4.94;83.06;101978.91;5071136;28;20068;-67
2022/03/16 02:37:38;;;;;;;25.00;13.93;;;;;;;4.93;83.27;101979.84;5054752;28;20044;-67
2022/03/16 02:40:07;;;;;;;23.40;13.23;;;;;;;4.88;83.65;101977.47;5072893;28;20105;-67
2022/03/16 02:42:34;;;;;;;25.25;13.73;;;;;;;4.75;83.20;101981.75;5054841;28;20045;-67
2022/03/16 02:45:02;;;;;;;24.25;13.88;;;;;;;4.85;83.19;101976.81;5071477;28;20063;-67
2022/03/16 02:47:29;;;;;;;23.23;13.45;;;;;;;4.87;82.93;101967.88;5071414;28;20493;-67
2022/03/16 02:49:55;;;;;;;24.02;13.57;;;;;;;4.88;83.22;101974.00;5072272;28;20048;-67
2022/03/16 02:52:22;;;;;;;26.33;13.85;;;;;;;4.85;83.58;101977.66;5054971;28;20435;-67
2022/03/16 02:54:49;;;;;;;24.33;13.48;;;;;;;4.78;83.33;101985.06;5072560;28;20044;-67
2022/03/16 02:57:16;;;;;;;27.08;13.65;;;;;;;4.83;83.06;101990.03;5073068;28;20075;-67
2022/03/16 02:59:43;;;;;;;26.70;14.10;;;;;;;4.78;83.24;101981.56;5072707;28;20044;-67
2022/03/16 03:02:11;;;;;;;24.75;13.00;;;;;;;4.79;83.14;101970.94;5071401;28;20052;-67
2022/03/16 03:04:38;;;;;;;23.95;13.27;;;;;;;4.74;83.51;101975.63;5051130;28;20133;-67
2022/03/16 03:07:06;;;;;;;26.15;14.10;;;;;;;4.73;83.25;101975.69;5051227;28;20049;-67
2022/03/16 03:09:33;;;;;;;26.83;13.88;;;;;;;4.66;83.57;101967.31;5051228;28;20037;-67
2022/03/16 03:12:01;;;;;;;25.08;14.38;;;;;;;4.71;83.15;101965.28;5034793;28;20045;-67
2022/03/16 03:14:29;;;;;;;27.80;13.80;;;;;;;4.69;82.94;101963.66;5052540;28;20118;-67
2022/03/16 03:16:57;;;;;;;29.63;13.38;;;;;;;4.62;83.20;101960.56;5052116;28;20045;-67
2022/03/16 03:19:23;;;;;;;20.67;12.32;;;;;;;4.65;83.25;101968.25;5053959;28;20082;-67
2022/03/16 03:21:50;;;;;;;25.38;12.55;;;;;;;4.67;83.15;101965.53;5072523;28;20041;-67
2022/03/16 03:24:17;;;;;;;24.92;13.15;;;;;;;4.66;82.88;101969.09;5073043;28;20051;-67
2022/03/16 03:26:44;;;;;;;26.90;13.57;;;;;;;4.59;83.12;101961.56;5076101;28;20094;-67
2022/03/16 03:29:10;;;;;;;24.77;12.88;;;;;;;4.56;83.22;101964.34;5074941;28;20052;-67
2022/03/16 03:31:37;;;;;;;27.00;13.32;;;;;;;4.47;83.08;101953.50;5091994;28;20036;-67
2022/03/16 03:34:04;;;;;;;28.77;13.40;;;;;;;4.47;82.79;101956.97;5074420;28;20044;-67
2022/03/16 03:36:31;;;;;;;27.30;13.82;;;;;;;4.54;83.28;101955.69;5075443;28;20102;-67
2022/03/16 03:38:57;;;;;;;27.80;12.88;;;;;;;4.55;83.01;101964.47;5074451;28;20044;-67
2022/03/16 03:41:24;;;;;;;24.88;12.63;;;;;;;4.48;83.04;101970.97;5074655;28;20045;-67
2022/03/16 03:43:51;;;;;;;29.77;13.25;;;;;;;4.46;82.97;101967.56;5054831;28;20493;-67
2022/03/16 03:46:17;;;;;;;23.38;12.50;;;;;;;4.45;83.46;101971.97;5058264;28;20098;-68
2022/03/16 03:48:44;;;;;;;27.13;13.13;;;;;;;4.42;83.18;101980.88;5074610;28;20045;-67
2022/03/16 03:51:11;;;;;;;25.45;13.05;;;;;;;4.43;82.90;101987.00;5075663;28;20071;-67
2022/03/16 03:53:38;;;;;;;25.25;12.93;;;;;;;4.41;83.27;101988.84;5075565;28;20052;-67
2022/03/16 03:56:05;;;;;;;24.75;12.52;;;;;;;4.41;82.85;101994.09;5058469;28;20041;-67
2022/03/16 03:58:31;;;;;;;26.58;13.23;;;;;;;4.22;82.86;101983.72;5075006;28;20091;-67
2022/03/16 04:00:58;;;;;;;29.08;13.68;;;;;;;4.22;83.26;101981.09;5074497;28;20497;-67
2022/03/16 04:03:25;;;;;;;24.23;13.32;;;;;;;4.18;83.64;101985.69;5074056;28;20036;-67
2022/03/16 04:05:52;;;;;;;26.88;13.40;;;;;;;4.21;83.02;101982.88;5073969;28;20044;-67
2022/03/16 04:08:18;;;;;;;25.52;12.30;;;;;;;4.24;82.93;101987.16;5057991;28;20512;-67
2022/03/16 04:10:45;;;;;;;26.90;13.25;;;;;;;4.19;83.16;101986.53;5057425;28;20421;-67
2022/03/16 04:13:12;;;;;;;26.20;12.52;;;;;;;4.17;83.07;101994.50;5074008;28;20041;-67
2022/03/16 04:15:39;;;;;;;25.60;13.52;;;;;;;4.17;83.53;101997.13;5075064;28;20044;-67
2022/03/16 04:18:06;;;;;;;22.10;11.57;;;;;;;4.09;83.85;101999.28;5073636;28;20036;-67
2022/03/16 04:20:32;;;;;;;24.25;12.15;;;;;;;4.15;83.67;102000.78;5075186;28;20056;-67
2022/03/16 04:22:59;;;;;;;30.83;12.82;;;;;;;4.18;83.87;101997.97;5074847;28;20071;-67
2022/03/16 04:25:26;;;;;;;23.52;12.40;;;;;;;4.21;83.72;102001.28;5075151;28;20448;-67
2022/03/16 04:27:52;;;;;;;23.63;13.30;;;;;;;4.14;84.17;101999.91;5057236;28;20423;-67
2022/03/16 04:30:19;;;;;;;25.48;13.02;;;;;;;4.17;83.85;102001.53;5075089;28;20051;-67
2022/03/16 04:32:51;;;;;;;24.30;12.15;;;;;;;4.07;83.82;102006.41;5073624;28;20128;-67
2022/03/16 04:35:19;;;;;;;;;;;;;;;4.01;84.10;102002.34;5073628;28;20044;-67
2022/03/16 04:37:47;;;;;;;25.42;12.00;;;;;;;4.10;83.98;102002.78;5074685;28;19974;-67
2022/03/16 04:40:14;;;;;;;26.42;12.57;;;;;;;4.05;84.32;102003.03;5073789;28;20048;-67
2022/03/16 04:42:40;;;;;;;23.33;12.40;;;;;;;4.03;84.30;102000.47;5056991;28;20075;-67
2022/03/16 04:45:08;;;;;;;23.75;12.48;;;;;;;4.04;84.15;101991.69;5073495;28;20119;-67
2022/03/16 04:47:34;;;;;;;23.73;12.85;;;;;;;4.04;84.36;101998.72;5057033;28;20041;-67
2022/03/16 04:50:02;;;;;;;23.80;12.93;;;;;;;4.10;84.23;101997.53;5056641;28;20044;-67
2022/03/16 04:52:29;;;;;;;23.88;12.70;;;;;;;4.16;83.56;102003.28;5074500;28;20381;-67
2022/03/16 04:54:56;;;;;;;22.30;12.70;;;;;;;4.10;83.89;102002.78;5074204;28;20040;-67
2022/03/16 04:57:23;;;;;;;24.38;13.05;;;;;;;4.03;84.17;101995.22;5073280;28;20102;-67
2022/03/16 04:59:49;;;;;;;29.63;13.98;;;;;;;4.07;84.15;101995.91;5056695;28;20090;-67
2022/03/16 05:02:16;;;;;;;25.48;12.68;;;;;;;4.14;83.32;101999.06;5056789;28;20055;-67
2022/03/16 05:04:43;;;;;;;27.10;13.20;;;;;;;4.09;83.96;102001.09;5073819;28;20036;-67
2022/03/16 05:07:09;;;;;;;25.52;13.15;;;;;;;4.10;83.66;102000.16;5056658;28;20068;-68
2022/03/16 05:09:36;;;;;;;24.95;13.98;;;;;;;4.15;83.61;101999.00;5072842;28;20536;-67
2022/03/16 05:12:03;;;;;;;24.67;12.70;;;;;;;4.11;83.61;101994.84;5073908;28;20051;-67
2022/03/16 05:14:30;;;;;;;26.17;13.63;;;;;;;4.01;83.69;101997.09;5073905;28;20091;-67
2022/03/16 05:16:57;;;;;;;27.70;14.20;;;;;;;4.04;83.96;101994.31;5073661;28;20067;-67
2022/03/16 05:19:26;;;;;;;28.42;13.18;;;;;;;3.96;84.32;101996.47;5072456;28;20120;-66
2022/03/16 05:21:52;;;;;;;25.83;13.45;;;;;;;3.98;83.96;101999.88;5073908;28;20041;-66
2022/03/16 05:24:22;;;;;;;25.58;13.82;;;;;;;4.04;83.98;101996.09;5072537;28;20063;-67
2022/03/16 05:26:49;;;;;;;27.13;14.45;;;;;;;4.05;84.00;101992.50;5073263;28;20102;-67
2022/03/16 05:29:16;;;;;;;25.05;13.20;;;;;;;4.00;84.09;101991.91;5073598;28;20041;-66
2022/03/16 05:31:43;;;;;;;22.92;13.25;;;;;;;4.04;83.92;101998.72;5072671;28;20067;-66
2022/03/16 05:34:10;;;;;;;24.45;13.20;;;;;;;4.02;84.14;102003.16;5072630;28;20060;-67
2022/03/16 05:36:37;;;;;;;24.63;12.60;;;;;;;3.95;84.17;102001.81;5072836;28;20048;-67
2022/03/16 05:39:04;;;;;;;24.55;13.15;;;;;;;3.97;84.15;102011.31;5073396;28;20507;-67
2022/03/16 05:41:30;;;;;;;30.05;12.57;;;;;;;4.10;83.65;102011.50;5073315;28;20052;-67
2022/03/16 05:43:57;;;;;;;27.60;13.68;;;;;;;3.96;83.20;102006.13;5106233;28;20040;-67
2022/03/16 05:46:24;;;;;;;28.65;12.82;;;;;;;3.94;83.65;102015.88;5072747;28;20090;-66
2022/03/16 05:48:51;;;;;;;27.25;13.68;;;;;;;3.94;83.62;102010.63;5073002;28;20032;-67
2022/03/16 05:51:18;;;;;;;27.02;12.55;;;;;;;3.92;83.63;102010.69;5073342;28;20063;-67
2022/03/16 05:53:44;;;;;;;30.35;12.90;;;;;;;3.92;83.70;102010.69;5073398;28;20045;-67
2022/03/16 05:56:11;;;;;;;23.80;12.13;;;;;;;3.98;83.70;101999.00;5073241;28;20052;-67
2022/03/16 05:58:38;;;;;;;23.50;12.57;;;;;;;4.01;83.54;102015.47;5073349;28;20123;-67
2022/03/16 06:01:04;;;;;;;23.40;12.48;;;;;;;4.04;83.78;102014.47;5072157;28;20040;-67
2022/03/16 06:03:31;;;;;;;28.42;12.15;;;;;;;4.03;83.49;102021.47;5074330;28;20045;-68
2022/03/16 06:05:58;;;;;;;22.33;12.05;;;;;;;4.12;83.12;102020.16;5070303;28;20048;-67
2022/03/16 06:08:24;;;;;;;23.23;12.75;;;;;;;4.15;83.43;102025.25;5077565;28;20045;-67
2022/03/16 06:10:51;;;;;;;27.63;12.75;;;;;;;4.16;83.14;102024.31;5074527;28;20044;-68
2022/03/16 06:13:18;;;;;;;26.25;12.15;;;;;;;4.17;83.51;102018.13;5072549;28;20492;-68
2022/03/16 06:15:44;;;;;;;27.38;12.82;;;;;;;4.25;82.55;102019.50;5073307;28;20044;-67
2022/03/16 06:18:12;;;;;;;30.57;13.23;;;;;;;4.20;82.84;102007.47;5071813;28;20047;-67
2022/03/16 06:20:40;;;;;;;28.42;13.10;;;;;;;4.22;82.75;102000.34;5072633;28;20094;-67
2022/03/16 06:23:07;;;;;;;31.13;13.30;;;;;;;4.32;82.32;102000.69;5053462;28;20060;-67
2022/03/16 06:25:35;;;;;;;24.85;12.38;;;;;;;4.38;81.99;101999.53;5053201;28;20052;-67
2022/03/16 06:28:02;;;;;;;24.63;12.88;;;;;;;4.43;81.77;102006.22;5052812;28;20478;-67
2022/03/16 06:30:29;;;;;;;22.58;12.35;;;;;;;4.41;82.18;102010.72;5052669;28;20044;-67
2022/03/16 06:32:55;;;;;;;25.88;12.25;;;;;;;4.45;81.58;102005.31;5054477;28;20052;-68
2022/03/16 06:35:23;;;;;;;25.48;12.05;;;;;;;4.56;81.62;102011.66;5072509;28;20055;-67
2022/03/16 06:37:50;;;;;;;23.80;12.23;;;;;;;4.48;81.89;102016.50;5054723;28;20568;-66
2022/03/16 06:40:17;;;;;;;28.30;12.88;;;;;;;4.61;81.48;102008.78;5072902;28;20060;-66
2022/03/16 06:42:55;;;;;;;23.45;12.43;;;;;;;4.68;80.88;102017.19;5072451;28;20094;-67
2022/03/16 06:45:23;;;;;;;28.40;12.27;;;;;;;4.80;80.77;102013.84;5071413;28;20051;-66
2022/03/16 06:47:53;;;;;;;26.50;12.20;;;;;;;4.74;80.91;102012.44;5065045;28;20055;-66
2022/03/16 06:50:20;;;;;;;27.98;12.98;;;;;;;4.73;80.64;102017.75;5070777;28;20064;-67
2022/03/16 06:52:47;;;;;;;33.80;12.38;;;;;;;4.79;81.07;102022.69;5070901;28;20060;-66
2022/03/16 06:55:14;;;;;;;24.23;12.68;;;;;;;4.88;80.54;102016.94;5054589;28;20041;-67
2022/03/16 06:57:41;;;;;;;22.40;11.85;;;;;;;4.80;80.15;102029.63;5071466;28;20036;-66
2022/03/16 07:00:09;;;;;;;26.33;13.00;;;;;;;4.92;80.49;102025.50;5074680;28;20484;-66
2022/03/16 07:03:00;;;;;;;26.02;12.52;;;;;;;5.03;80.06;102023.09;5058756;28;20040;-68
2022/03/16 07:05:30;;;;;;;26.23;12.95;;;;;;;4.88;80.08;102023.97;5056376;28;20099;-67
2022/03/16 07:07:59;;;;;;;26.92;12.15;;;;;;;4.97;80.07;102026.94;5055409;28;20472;-67
2022/03/16 07:10:27;;;;;;;29.15;13.10;;;;;;;5.12;80.00;102024.38;5056527;28;20512;-67
2022/03/16 07:12:54;;;;;;;21.45;12.40;;;;;;;5.03;79.64;102017.84;5056323;28;20044;-67
2022/03/16 07:15:21;;;;;;;22.95;12.48;;;;;;;5.14;79.96;102015.44;5054347;28;20445;-67
2022/03/16 07:17:48;;;;;;;27.35;12.98;;;;;;;5.28;79.28;102016.44;5076043;28;20040;-67
2022/03/16 07:20:16;;;;;;;31.33;12.93;;;;;;;5.26;79.03;102007.81;5074784;28;20098;-67
2022/03/16 07:22:43;;;;;;;24.40;12.77;;;;;;;5.40;79.16;102013.09;5074126;28;20094;-67
2022/03/16 07:25:27;;;;;;;23.67;13.07;;;;;;;5.44;78.86;102016.38;5074850;28;20503;-68
2022/03/16 07:27:53;;;;;;;30.73;13.68;;;;;;;5.60;78.08;102008.44;5076209;28;20488;-67
2022/03/16 07:30:20;;;;;;;26.52;12.48;;;;;;;5.70;78.08;102010.44;5041532;28;20039;-68
2022/03/16 07:32:47;;;;;;;25.25;13.02;;;;;;;5.74;77.28;102005.84;5075948;28;20070;-68
2022/03/16 07:35:14;;;;;;;24.83;12.88;;;;;;;5.76;77.39;102007.44;5075516;28;20044;-67
2022/03/16 07:37:42;;;;;;;27.40;13.30;;;;;;;5.85;77.21;102011.31;5075554;28;20550;-67
2022/03/16 07:40:10;;;;;;;26.58;13.52;;;;;;;5.91;76.86;102000.44;5074278;28;20068;-67
2022/03/16 07:42:37;;;;;;;28.55;13.40;;;;;;;6.01;77.38;102003.38;5074935;28;20052;-67
2022/03/16 07:45:04;;;;;;;26.40;13.63;;;;;;;6.17;76.16;102005.03;5075922;28;20051;-68
2022/03/16 07:47:31;;;;;;;28.35;13.32;;;;;;;6.30;76.58;101996.31;5074518;28;20097;-68
2022/03/16 07:50:04;;;;;;;30.73;14.15;;;;;;;6.28;75.67;101990.28;5075333;28;20041;-67
2022/03/16 07:52:32;;;;;;;34.78;13.45;;;;;;;6.35;75.79;101996.03;5074880;28;20071;-67
2022/03/16 07:55:00;;;;;;;26.15;13.60;;;;;;;6.61;75.66;102001.44;5075563;28;20047;-67
2022/03/16 07:57:27;;;;;;;24.88;13.10;;;;;;;6.70;74.78;102003.50;5075492;28;20436;-67
2022/03/16 07:59:55;;;;;;;29.75;14.13;;;;;;;6.84;74.26;101999.94;5057906;28;20051;-67
2022/03/16 08:02:22;;;;;;;28.92;14.80;;;;;;;6.89;74.06;101998.72;5073944;28;20040;-67
2022/03/16 08:04:48;;;;;;;24.20;13.02;;;;;;;6.90;73.75;102000.41;5061514;28;20056;-67
2022/03/16 08:07:15;;;;;;;26.90;13.65;;;;;;;7.14;73.81;101996.28;5075407;28;20044;-67
2022/03/16 08:09:42;;;;;;;26.60;13.38;;;;;;;7.20;72.87;101991.41;5072260;28;20036;-66
2022/03/16 08:12:09;;;;;;;27.90;12.80;;;;;;;7.36;72.49;101993.06;5073484;28;20093;-65
2022/03/16 08:14:36;;;;;;;27.27;13.50;;;;;;;7.56;72.50;101989.91;5069870;28;20038;-63
2022/03/16 08:17:02;;;;;;;22.48;12.88;;;;;;;7.60;72.36;101996.66;5069192;28;20052;-64
2022/03/16 08:19:29;;;;;;;24.55;12.88;;;;;;;7.79;71.18;101992.81;5063134;28;20099;-64
2022/03/16 08:21:57;;;;;;;24.55;13.48;;;;;;;7.91;71.09;101989.28;5071370;28;20544;-64
2022/03/16 08:24:25;;;;;;;25.50;13.20;;;;;;;7.97;70.84;101995.97;5074055;28;20048;-63
2022/03/16 08:27:00;;;;;;;24.48;12.57;;;;;;;8.09;70.70;101989.81;5078011;28;20131;-65
2022/03/16 08:29:27;;;;;;;27.30;13.50;;;;;;;8.22;70.34;101979.22;5065582;28;20032;-65
2022/03/16 08:31:54;;;;;;;25.38;13.73;;;;;;;8.17;69.46;101981.38;5070103;28;20500;-65
2022/03/16 08:34:21;;;;;;;23.95;13.15;;;;;;;8.22;69.39;101984.50;5070912;28;20770;-65
2022/03/16 08:36:47;;;;;;;24.45;13.70;;;;;;;8.38;71.35;101973.69;5063532;28;20045;-65
2022/03/16 08:39:14;;;;;;;26.15;13.57;;;;;;;8.76;68.86;101978.88;5068584;28;20442;-64
2022/03/16 08:41:41;;;;;;;26.65;13.45;;;;;;;8.74;67.83;101975.53;5094977;28;20036;-65
2022/03/16 08:44:08;;;;;;;23.63;13.40;;;;;;;8.81;67.16;101979.41;5065071;28;20040;-65
2022/03/16 08:46:35;;;;;;;28.70;13.80;;;;;;;9.19;66.06;101980.19;5085191;28;20040;-65
2022/03/16 08:49:02;;;;;;;28.75;13.82;;;;;;;9.05;67.96;101980.38;5091522;28;20085;-65
2022/03/16 08:51:28;;;;;;;24.90;13.45;;;;;;;9.02;67.86;101981.41;5081006;28;20063;-65
2022/03/16 08:53:55;;;;;;;23.65;13.30;;;;;;;9.21;66.66;101979.09;5089385;28;20036;-65
2022/03/16 08:56:23;;;;;;;27.60;14.32;;;;;;;9.17;66.67;101982.94;5076045;28;20036;-65
2022/03/16 08:58:50;;;;;;;28.70;14.70;;;;;;;9.04;66.44;101974.25;5088032;28;20044;-65
2022/03/16 09:01:17;;;;;;;26.98;13.93;;;;;;;8.76;66.48;101976.25;5071942;28;20044;-65
2022/03/16 09:03:43;;;;;;;25.15;13.50;;;;;;;8.86;67.44;101967.63;5111685;27;20048;-65
2022/03/16 09:06:10;;;;;;;26.88;13.27;;;;;;;8.93;67.50;101960.94;5066804;28;20527;-65
2022/03/16 09:08:37;;;;;;;23.65;13.93;;;;;;;9.20;66.83;101969.50;5053672;28;20058;-65
2022/03/16 09:11:04;;;;;;;29.00;15.15;;;;;;;9.32;65.99;101959.75;5070603;28;20060;-66
2022/03/16 09:13:32;;;;;;;33.28;14.65;;;;;;;9.54;65.79;101968.72;5062825;28;20040;-66
2022/03/16 09:16:01;;;;;;;26.05;14.02;;;;;;;9.64;64.75;101972.38;5060960;28;20045;-66
2022/03/16 09:18:29;;;;;;;24.27;13.32;;;;;;;9.71;64.56;101980.66;5070576;28;20036;-65
2022/03/16 09:20:57;;;;;;;27.75;13.52;;;;;;;9.99;63.44;101977.56;5070547;28;20101;-65
2022/03/16 09:23:23;;;;;;;23.58;13.00;;;;;;;10.72;61.80;101967.38;5072901;28;20393;-65
2022/03/16 09:25:50;;;;;;;28.40;14.43;;;;;;;11.40;59.03;101980.38;5056387;28;20497;-65
2022/03/16 09:28:17;;;;;;;26.52;13.77;;;;;;;12.15;56.88;101981.13;5072756;28;20052;-65
2022/03/16 09:30:43;;;;;;;23.25;13.50;;;;;;;12.80;54.24;101970.88;5081937;28;20641;-66
2022/03/16 09:33:10;;;;;;;27.55;13.48;;;;;;;13.03;52.64;101982.13;5080263;28;20056;-65
2022/03/16 09:35:37;;;;;;;21.38;13.10;;;;;;;13.49;52.11;101978.88;5071873;28;20574;-66
2022/03/16 09:38:03;;;;;;;24.60;13.70;;;;;;;14.01;49.34;101984.66;5071378;28;20049;-67
2022/03/16 09:40:31;;;;;;;21.98;13.00;;;;;;;13.61;50.72;101988.41;5070995;28;20093;-68
2022/03/16 09:42:58;;;;;;;22.60;12.75;;;;;;;14.34;48.68;101999.25;5081046;28;20041;-66
2022/03/16 09:45:29;;;;;;;23.45;13.73;;;;;;;15.65;46.16;101990.81;5070781;28;20044;-67
2022/03/16 09:47:56;;;;;;;21.85;12.88;;;;;;;16.22;43.60;101993.81;5068312;28;20051;-67
2022/03/16 09:50:23;;;;;;;25.05;13.50;;;;;;;15.89;44.30;101990.97;5099690;28;20539;-67
2022/03/16 09:52:50;;;;;;;21.73;13.18;;;;;;;16.18;43.19;101988.97;5072621;28;20044;-67
2022/03/16 09:55:18;;;;;;;20.55;12.32;;;;;;;16.58;43.44;101988.25;5069839;28;20053;-66
2022/03/16 09:57:45;;;;;;;21.23;12.65;;;;;;;16.53;43.50;101985.22;5060664;28;20063;-67
2022/03/16 10:00:12;;;;;;;20.65;12.57;;;;;;;17.03;42.03;101972.81;5067392;28;20033;-67
2022/03/16 10:02:40;;;;;;;22.58;12.80;;;;;;;17.24;40.78;101966.94;5070848;28;20066;-67
2022/03/16 10:05:09;;;;;;;19.83;12.05;;;;;;;17.84;39.80;101971.88;5059158;28;20052;-67
2022/03/16 10:07:37;;;;;;;20.80;12.60;;;;;;;17.34;40.74;101969.44;5078509;28;20049;-68
2022/03/16 10:13:23;;;;;;;20.90;12.25;;;;;;;16.95;39.91;101956.69;5069040;28;20041;-67
2022/03/16 10:15:39;;;;;;;21.52;12.25;;;;;;;17.28;40.11;101949.47;5053993;28;20045;-67
2022/03/16 10:18:06;;;;;;;19.20;11.68;;;;;;;17.18;40.24;101947.00;5061697;28;20094;-67
2022/03/16 10:20:39;;;;;;;21.08;11.30;;;;;;;17.86;38.88;101950.25;5062002;28;20032;-67
2022/03/16 10:23:13;;;;;;;19.45;11.38;;;;;;;18.96;36.89;101957.41;5076017;28;20401;-67
2022/03/16 10:25:52;;;;;;;20.50;12.20;;;;;;;18.59;37.37;101961.63;5056413;28;20110;-68
2022/03/16 10:28:22;;;;;;;21.27;11.50;;;;;;;19.31;35.44;101955.09;5063329;28;20045;-68
2022/03/16 10:33:35;;;;;;;21.17;11.85;;;;;;;20.35;33.70;101957.78;5130132;27;20397;-68
2022/03/16 10:36:08;;;;;;;19.67;11.60;;;;;;;20.16;34.67;101948.47;5127244;28;20038;-68
2022/03/16 10:38:38;;;;;;;17.15;10.77;;;;;;;19.34;34.99;101955.56;5141950;27;20047;-68
2022/03/16 10:47:02;;;;;;;19.27;9.57;;;;;;;21.25;32.01;101942.13;5129858;27;20043;-68
2022/03/16 10:49:32;;;;;;;15.68;9.65;;;;;;;20.40;32.61;101952.66;5135276;27;20491;-68
2022/03/16 10:52:04;;;;;;;17.58;9.90;;;;;;;20.70;32.26;101941.81;5130139;27;20468;-68
2022/03/16 10:54:33;;;;;;;20.00;9.50;;;;;;;20.90;32.08;101939.31;5117900;27;20047;-68
2022/03/16 10:57:02;;;;;;;17.13;9.80;;;;;;;19.96;32.69;101944.69;5127888;28;20039;-68
2022/03/16 10:59:32;;;;;;;17.45;9.30;;;;;;;19.83;33.40;101945.31;5131024;27;20093;-68
2022/03/16 11:02:04;;;;;;;14.57;9.32;;;;;;;20.00;32.99;101945.97;5135948;27;20035;-68
2022/03/16 11:04:33;;;;;;;14.77;9.50;;;;;;;20.12;32.76;101931.84;5110898;28;20134;-68
2022/03/16 11:07:01;;;;;;;17.55;10.13;;;;;;;19.88;33.20;101938.38;5126741;28;20057;-68
2022/03/16 11:09:30;;;;;;;19.05;9.50;;;;;;;20.43;32.55;101921.81;5127393;28;20059;-68
2022/03/16 11:14:47;;;;;;;15.57;9.20;;;;;;;19.92;32.48;101914.59;5127777;28;20158;-68
2022/03/16 11:17:15;;;;;;;14.88;8.88;;;;;;;20.31;32.72;101921.47;5130054;27;20039;-68
2022/03/16 11:19:46;;;;;;;15.90;9.73;;;;;;;19.80;33.51;101918.78;5111001;28;20047;-68
2022/03/16 11:22:19;;;;;;;21.33;8.63;;;;;;;19.98;32.62;101911.16;5125504;27;20035;-68
2022/03/16 11:24:51;;;;;;;15.40;9.20;;;;;;;20.86;30.92;101901.09;5136090;27;20065;-68
2022/03/16 11:27:46;;;;;;;14.52;8.90;;;;;;;21.01;31.09;101905.59;5133728;27;20071;-68
2022/03/16 11:30:35;;;;;;;14.77;8.60;;;;;;;20.62;31.48;101913.13;5132616;27;20047;-68
2022/03/16 11:33:08;;;;;;;15.52;8.63;;;;;;;20.28;32.35;101921.84;5130927;27;20052;-69